Port Fourchon, Louisiana
Current Conditions -  °F | °C
As of 8:40 AM on Sunday 21 Dec 2014 (Local Time) from KXPY Reporting Station
Overcast Overcast  
Wind Chill: 55°   Ceiling: 700
Heat Index: 55°   Visibility: 7mi
Dew Point: 52°   Wind: 10mph
Humidity: 88%   Direction: 40°NE
Pressure: 30.13"   Gusts: NA
Location:  29.12°N, 90.2°W
Report Text: KXPY 211440Z AUTO 04009KT 7SM OVC007 13/11 A3013 RMK A01
Loading
Personal Weather Stations






























Interactive Weather Map New forecast layout! Learn more

10-Day Weather Forecast

Advertisements
Track Severe Weather on mobile